Time;durP1;ratioP1;P1;durP2;ratioP2;P2;SDS_P1;SDS_P2;PMS_P1;PMS_P2;Temp;Humidity;BMP_temperature;BMP_pressure;BME280_temperature;BME280_humidity;BME280_pressure;Samples;Min_cycle;Max_cycle;Signal;HPM_P1;HPM_P2
2021/10/25 00:02:15;;;;;;;6.90;4.53;;;5.10;87.30;;;;;;5048856;28;20180;-92
2021/10/25 00:04:41;;;;;;;7.67;4.30;;;5.10;87.30;;;;;;5058154;28;20177;-92
2021/10/25 00:07:07;;;;;;;8.97;4.20;;;5.10;87.40;;;;;;5058249;28;20202;-92
2021/10/25 00:09:32;;;;;;;7.37;3.87;;;5.20;87.30;;;;;;5052431;28;20174;-92
2021/10/25 00:11:58;;;;;;;8.63;4.50;;;5.20;87.20;;;;;;5043341;28;20188;-92
2021/10/25 00:14:24;;;;;;;7.87;4.77;;;5.20;87.30;;;;;;5040432;28;20170;-91
2021/10/25 00:16:50;;;;;;;10.30;4.43;;;5.10;87.30;;;;;;5038800;28;20231;-92
2021/10/25 00:19:16;;;;;;;9.17;4.20;;;5.10;87.30;;;;;;5039045;28;20192;-92
2021/10/25 00:21:43;;;;;;;11.00;4.50;;;5.10;87.40;;;;;;5038544;28;20227;-92
2021/10/25 00:24:08;;;;;;;10.70;4.73;;;5.10;87.20;;;;;;5038460;28;20226;-92
2021/10/25 00:26:34;;;;;;;14.43;4.37;;;5.20;87.30;;;;;;5041086;28;20687;-92
2021/10/25 00:29:00;;;;;;;6.60;4.77;;;5.20;87.10;;;;;;5044075;28;20192;-92
2021/10/25 00:31:26;;;;;;;10.37;5.80;;;5.20;87.10;;;;;;5043251;28;20566;-92
2021/10/25 00:33:52;;;;;;;6.50;4.70;;;5.20;87.00;;;;;;5041248;28;20290;-91
2021/10/25 00:36:18;;;;;;;9.17;4.47;;;5.20;86.90;;;;;;5040683;28;20216;-91
2021/10/25 00:38:44;;;;;;;13.70;5.87;;;5.10;86.90;;;;;;5040994;28;20251;-92
2021/10/25 00:41:10;;;;;;;6.40;4.33;;;5.10;87.00;;;;;;5040074;28;20189;-92
2021/10/25 00:43:37;;;;;;;9.90;4.63;;;5.10;87.10;;;;;;5040109;28;20180;-92
2021/10/25 00:46:03;;;;;;;6.40;3.93;;;5.00;87.10;;;;;;5039665;28;20182;-92
2021/10/25 00:48:29;;;;;;;8.23;4.00;;;5.00;87.20;;;;;;5039950;28;20200;-93
2021/10/25 00:50:55;;;;;;;9.27;4.63;;;5.00;87.10;;;;;;5040155;28;20226;-92
2021/10/25 00:53:20;;;;;;;5.90;4.33;;;4.90;87.10;;;;;;5040057;28;20179;-92
2021/10/25 00:55:46;;;;;;;9.20;4.20;;;5.00;87.10;;;;;;5041715;28;20196;-92
2021/10/25 00:58:13;;;;;;;7.47;4.60;;;4.90;87.20;;;;;;5044777;28;20218;-93
2021/10/25 01:00:39;;;;;;;9.20;4.13;;;4.80;87.20;;;;;;5044905;28;20181;-92
2021/10/25 01:03:05;;;;;;;9.53;4.17;;;4.90;87.10;;;;;;5046349;28;20186;-92
2021/10/25 01:05:32;;;;;;;8.50;4.37;;;4.80;87.00;;;;;;5045165;28;20185;-92
2021/10/25 01:08:02;;;;;;;6.73;3.83;;;4.80;87.00;;;;;;5046184;28;20690;-92
2021/10/25 01:10:28;;;;;;;11.87;4.47;;;4.80;87.10;;;;;;5046562;28;20222;-92
2021/10/25 01:12:55;;;;;;;8.20;4.30;;;4.90;87.10;;;;;;5045393;28;20226;-92
2021/10/25 01:15:21;;;;;;;8.20;3.73;;;4.80;87.10;;;;;;5044759;28;20179;-92
2021/10/25 01:17:56;;;;;;;5.73;4.17;;;4.90;87.20;;;;;;5043905;28;20213;-92
2021/10/25 01:20:29;;;;;;;7.43;4.17;;;4.90;87.30;;;;;;5043142;28;20180;-93
2021/10/25 01:22:55;;;;;;;7.80;4.57;;;4.90;87.20;;;;;;5044868;28;20214;-92
2021/10/25 01:25:22;;;;;;;7.67;4.80;;;4.90;87.40;;;;;;5046307;28;20182;-92
2021/10/25 01:27:49;;;;;;;12.03;4.37;;;4.90;87.30;;;;;;5047060;28;20304;-93
2021/10/25 01:30:16;;;;;;;8.87;4.53;;;4.90;87.30;;;;;;5046778;28;20186;-92
2021/10/25 01:32:43;;;;;;;12.00;4.20;;;4.80;87.40;;;;;;5045771;28;20177;-92
2021/10/25 01:35:09;;;;;;;5.43;4.07;;;4.80;87.60;;;;;;5045984;28;20173;-92
2021/10/25 01:37:35;;;;;;;10.47;4.63;;;4.70;87.80;;;;;;5044907;28;20206;-92
2021/10/25 01:40:00;;;;;;;9.10;4.63;;;4.70;88.00;;;;;;5046646;28;20186;-93
2021/10/25 01:42:27;;;;;;;8.77;4.80;;;4.60;87.90;;;;;;5045282;28;20268;-92
2021/10/25 01:44:52;;;;;;;10.07;4.50;;;4.60;88.10;;;;;;5046256;28;20663;-92
2021/10/25 01:47:18;;;;;;;9.37;4.30;;;4.60;88.10;;;;;;5045124;28;20212;-94
2021/10/25 01:49:44;;;;;;;12.23;4.70;;;4.70;88.30;;;;;;5046604;28;20177;-92
2021/10/25 01:52:12;;;;;;;6.90;4.43;;;4.60;88.20;;;;;;5045197;28;20196;-92
2021/10/25 01:54:38;;;;;;;14.43;4.70;;;4.60;88.30;;;;;;5044229;28;20182;-91
2021/10/25 01:57:07;;;;;;;8.07;4.70;;;4.60;88.30;;;;;;5045112;28;20267;-93
2021/10/25 01:59:33;;;;;;;8.43;4.93;;;4.60;88.30;;;;;;5044795;28;20620;-92
2021/10/25 02:01:59;;;;;;;8.73;5.37;;;4.60;88.30;;;;;;5044797;28;20178;-93
2021/10/25 02:04:24;;;;;;;7.80;4.97;;;4.50;88.20;;;;;;5046603;28;20176;-93
2021/10/25 02:06:50;;;;;;;7.07;4.33;;;4.50;88.30;;;;;;5045837;28;20203;-93
2021/10/25 02:09:16;;;;;;;8.13;4.63;;;4.60;88.50;;;;;;5045332;28;20189;-92
2021/10/25 02:11:41;;;;;;;9.37;5.67;;;4.50;88.30;;;;;;5044979;28;20179;-91
2021/10/25 02:14:07;;;;;;;8.93;4.70;;;4.40;88.40;;;;;;5044259;28;20189;-93
2021/10/25 02:16:33;;;;;;;7.67;4.90;;;4.50;88.50;;;;;;5043405;28;20249;-92
2021/10/25 02:18:59;;;;;;;8.77;4.60;;;4.50;88.70;;;;;;5043490;28;20196;-91
2021/10/25 02:21:25;;;;;;;9.37;4.80;;;4.50;88.80;;;;;;5043875;28;20214;-93
2021/10/25 02:23:50;;;;;;;9.70;4.87;;;4.50;88.60;;;;;;5043821;28;20184;-93
2021/10/25 02:26:16;;;;;;;10.97;4.80;;;4.50;88.50;;;;;;5044284;28;20196;-93
2021/10/25 02:28:42;;;;;;;11.77;5.20;;;4.50;88.40;;;;;;5045786;28;20238;-93
2021/10/25 02:31:08;;;;;;;6.20;4.40;;;4.40;88.70;;;;;;5043317;28;20214;-93
2021/10/25 02:33:33;;;;;;;9.13;5.13;;;4.40;88.70;;;;;;5043666;28;20579;-93
2021/10/25 02:35:59;;;;;;;6.83;4.67;;;4.40;88.70;;;;;;5041623;28;20173;-92
2021/10/25 02:38:25;;;;;;;10.60;4.83;;;4.40;88.70;;;;;;5044181;28;20196;-93
2021/10/25 02:40:50;;;;;;;5.93;4.40;;;4.40;88.70;;;;;;5042738;28;20179;-93
2021/10/25 02:43:16;;;;;;;6.43;5.30;;;4.40;88.70;;;;;;5043258;28;20196;-92
2021/10/25 02:45:43;;;;;;;6.73;4.77;;;4.40;88.50;;;;;;5043846;28;20263;-92
2021/10/25 02:48:10;;;;;;;10.53;5.60;;;4.30;88.60;;;;;;5044182;28;20207;-92
2021/10/25 02:50:35;;;;;;;6.13;4.60;;;4.30;88.50;;;;;;5044393;28;20177;-93
2021/10/25 02:53:02;;;;;;;6.50;5.07;;;4.30;88.90;;;;;;5044382;28;20225;-92
2021/10/25 02:55:27;;;;;;;10.90;4.50;;;4.30;88.80;;;;;;5045577;28;20203;-92
2021/10/25 02:57:53;;;;;;;8.37;4.77;;;4.20;88.60;;;;;;5043728;28;20220;-93
2021/10/25 03:00:19;;;;;;;8.80;4.97;;;4.20;88.70;;;;;;5045929;28;20180;-93
2021/10/25 03:02:45;;;;;;;9.70;4.80;;;4.20;89.10;;;;;;5044624;28;20275;-93
2021/10/25 03:05:11;;;;;;;10.10;5.13;;;4.20;89.00;;;;;;5045284;28;20176;-92
2021/10/25 03:07:37;;;;;;;6.80;4.43;;;4.20;88.90;;;;;;5044540;28;20211;-93
2021/10/25 03:10:04;;;;;;;7.90;4.60;;;4.10;88.80;;;;;;5044723;28;20176;-93
2021/10/25 03:12:30;;;;;;;7.07;4.67;;;4.10;88.80;;;;;;5043949;28;20179;-93
2021/10/25 03:14:56;;;;;;;8.17;5.20;;;4.10;88.70;;;;;;5043871;28;20235;-93
2021/10/25 03:17:22;;;;;;;5.87;4.50;;;4.10;88.80;;;;;;5045202;28;20196;-93
2021/10/25 03:19:48;;;;;;;8.43;4.73;;;4.00;88.60;;;;;;5044554;28;20192;-92
2021/10/25 03:22:14;;;;;;;11.57;5.00;;;4.00;88.50;;;;;;5044993;28;20179;-92
2021/10/25 03:24:41;;;;;;;6.77;4.90;;;4.00;88.80;;;;;;5045867;28;20180;-92
2021/10/25 03:27:07;;;;;;;8.03;5.27;;;4.00;89.00;;;;;;5044335;28;20265;-92
2021/10/25 03:29:33;;;;;;;9.50;5.03;;;4.10;89.10;;;;;;5047053;28;20190;-93
2021/10/25 03:31:59;;;;;;;9.57;5.50;;;4.10;89.00;;;;;;5045539;28;20243;-93
2021/10/25 03:34:26;;;;;;;14.60;7.20;;;4.10;89.20;;;;;;5045045;28;20176;-93
2021/10/25 03:36:53;;;;;;;9.43;5.17;;;4.10;89.40;;;;;;5046295;28;20284;-92
2021/10/25 03:39:22;;;;;;;11.83;5.93;;;4.10;89.40;;;;;;5047007;28;20196;-93
2021/10/25 03:41:50;;;;;;;7.20;5.33;;;4.10;89.50;;;;;;5046659;28;20180;-93
2021/10/25 03:44:23;;;;;;;5.80;5.00;;;4.10;89.50;;;;;;5046304;28;20180;-94
2021/10/25 03:49:22;;;;;;;8.93;6.27;;;4.10;89.50;;;;;;5063835;28;20192;-93
2021/10/25 03:51:48;;;;;;;9.17;5.63;;;4.10;89.60;;;;;;5045921;28;20164;-92
2021/10/25 03:59:28;;;;;;;10.13;6.17;;;4.00;89.40;;;;;;5064969;28;20203;-92
2021/10/25 04:28:28;;;;;;;11.17;5.40;;;3.90;89.50;;;;;;5068467;28;20188;-92
2021/10/25 04:30:57;;;;;;;9.50;6.37;;;3.90;89.40;;;;;;5049890;28;20199;-92
2021/10/25 04:33:24;;;;;;;7.17;6.00;;;3.90;89.40;;;;;;5050372;28;20272;-92
2021/10/25 04:35:51;;;;;;;5.87;5.03;;;3.90;89.30;;;;;;5050231;28;20203;-92
2021/10/25 04:38:17;;;;;;;9.43;5.30;;;3.80;89.30;;;;;;5051029;28;20212;-93
2021/10/25 04:40:43;;;;;;;7.83;5.13;;;3.80;89.40;;;;;;5050463;28;20184;-92
2021/10/25 04:43:14;;;;;;;8.03;6.27;;;3.80;89.50;;;;;;5051347;28;20183;-93
2021/10/25 04:45:41;;;;;;;12.40;5.90;;;3.80;89.30;;;;;;5052407;28;20175;-93
2021/10/25 04:48:07;;;;;;;7.73;5.07;;;3.80;89.30;;;;;;5050556;28;20242;-93
2021/10/25 04:50:33;;;;;;;7.53;5.33;;;3.80;89.30;;;;;;5049914;28;20180;-92
2021/10/25 04:53:00;;;;;;;9.03;5.00;;;3.80;89.30;;;;;;5050060;28;20212;-92
2021/10/25 04:55:25;;;;;;;7.10;5.60;;;3.80;89.10;;;;;;5048914;28;20211;-93
2021/10/25 04:57:51;;;;;;;8.57;5.23;;;3.80;89.00;;;;;;5048397;28;20227;-92
2021/10/25 05:00:17;;;;;;;8.57;5.33;;;3.80;88.90;;;;;;5049557;28;20179;-93
2021/10/25 05:02:43;;;;;;;8.73;5.80;;;3.80;88.90;;;;;;5048708;28;20664;-92
2021/10/25 05:05:09;;;;;;;7.20;5.40;;;3.80;89.00;;;;;;5048705;28;20177;-93
2021/10/25 05:07:35;;;;;;;10.17;6.00;;;3.80;89.10;;;;;;5049699;28;20213;-92
2021/10/25 05:10:02;;;;;;;10.10;5.80;;;3.80;89.10;;;;;;5049684;28;20176;-91
2021/10/25 05:12:29;;;;;;;10.83;5.70;;;3.80;89.40;;;;;;5048787;28;20184;-92
2021/10/25 05:14:55;;;;;;;13.03;7.10;;;3.80;89.40;;;;;;5050062;28;20172;-92
2021/10/25 05:17:21;;;;;;;10.10;6.67;;;3.80;89.50;;;;;;5049073;28;20200;-92
2021/10/25 05:19:47;;;;;;;9.90;6.20;;;3.80;89.40;;;;;;5049145;28;20567;-92
2021/10/25 05:22:12;;;;;;;11.63;6.63;;;3.80;89.60;;;;;;5049765;28;20176;-93
2021/10/25 05:24:41;;;;;;;12.20;5.97;;;3.80;89.70;;;;;;5050135;28;20188;-92
2021/10/25 05:27:08;;;;;;;8.50;6.80;;;3.80;89.60;;;;;;5048819;28;20204;-92
2021/10/25 05:29:34;;;;;;;11.43;6.40;;;3.70;89.60;;;;;;5047165;28;20229;-92
2021/10/25 05:32:01;;;;;;;7.90;7.07;;;3.70;89.90;;;;;;5046812;28;20172;-92
2021/10/25 05:34:27;;;;;;;10.63;6.50;;;3.70;90.00;;;;;;5050304;28;20175;-92
2021/10/25 05:36:52;;;;;;;9.67;6.70;;;3.70;90.10;;;;;;5051872;28;20256;-92
2021/10/25 05:39:18;;;;;;;9.87;6.60;;;3.70;90.10;;;;;;5048623;28;20227;-92
2021/10/25 05:41:44;;;;;;;10.77;5.77;;;3.70;90.00;;;;;;5048435;28;20180;-92
2021/10/25 05:44:11;;;;;;;8.43;6.17;;;3.70;89.90;;;;;;5047333;28;20187;-92
2021/10/25 05:46:37;;;;;;;13.77;7.63;;;3.70;90.10;;;;;;5047038;28;20200;-93
2021/10/25 05:49:03;;;;;;;8.93;6.97;;;3.60;90.30;;;;;;5047623;28;20291;-92
2021/10/25 05:51:30;;;;;;;9.30;6.83;;;3.60;90.40;;;;;;5046578;28;20172;-92
2021/10/25 05:53:58;;;;;;;12.17;7.00;;;3.60;90.70;;;;;;5047788;28;20199;-92
2021/10/25 05:56:25;;;;;;;10.87;7.23;;;3.60;90.70;;;;;;5049033;28;20244;-91
2021/10/25 05:58:51;;;;;;;10.00;7.00;;;3.70;91.00;;;;;;5047989;28;20214;-92
2021/10/25 06:01:19;;;;;;;10.60;7.90;;;3.70;90.90;;;;;;5049141;28;20289;-92
2021/10/25 06:03:47;;;;;;;9.03;6.93;;;3.70;90.90;;;;;;5051289;28;20230;-92
2021/10/25 06:06:13;;;;;;;10.67;7.33;;;3.70;91.00;;;;;;5049406;28;20183;-92
2021/10/25 06:08:40;;;;;;;12.10;7.47;;;3.70;90.80;;;;;;5052326;28;20202;-92
2021/10/25 06:11:07;;;;;;;12.87;8.00;;;3.60;90.70;;;;;;5050226;28;20180;-92
2021/10/25 06:13:43;;;;;;;10.37;6.70;;;3.60;90.70;;;;;;5054715;28;20184;-92
2021/10/25 06:16:14;;;;;;;12.43;7.77;;;3.50;90.80;;;;;;5053551;28;20173;-92
2021/10/25 06:18:41;;;;;;;8.87;6.77;;;3.50;90.70;;;;;;5052127;28;20196;-93
2021/10/25 06:21:07;;;;;;;11.57;7.57;;;3.60;90.90;;;;;;5052028;28;20222;-93
2021/10/25 06:23:33;;;;;;;11.30;7.90;;;3.60;91.00;;;;;;5049023;28;20176;-91
2021/10/25 06:26:00;;;;;;;15.13;7.63;;;3.50;90.90;;;;;;5046221;28;20176;-92
2021/10/25 06:28:26;;;;;;;10.20;8.20;;;3.50;91.00;;;;;;5056097;28;20180;-93
2021/10/25 06:31:02;;;;;;;12.07;7.97;;;3.50;91.00;;;;;;5051059;28;20183;-92
2021/10/25 06:33:29;;;;;;;13.33;9.43;;;3.50;91.00;;;;;;5055901;28;20255;-93
2021/10/25 06:36:05;;;;;;;18.30;9.43;;;3.60;91.00;;;;;;5044952;28;20200;-92
2021/10/25 06:38:36;;;;;;;11.10;9.20;;;3.60;91.00;;;;;;5045077;28;20200;-92
2021/10/25 06:41:03;;;;;;;15.93;8.67;;;3.60;91.00;;;;;;5047203;28;20615;-93
2021/10/25 06:43:29;;;;;;;15.10;8.13;;;3.70;91.00;;;;;;5048733;28;20202;-92
2021/10/25 06:45:56;;;;;;;13.77;8.37;;;3.70;91.10;;;;;;5047292;28;20176;-93
2021/10/25 06:48:22;;;;;;;10.07;7.70;;;3.70;91.10;;;;;;5047446;28;20212;-92
2021/10/25 06:50:49;;;;;;;15.17;8.13;;;3.80;91.10;;;;;;5048702;28;20176;-93
2021/10/25 06:53:16;;;;;;;14.73;8.00;;;3.80;91.10;;;;;;5051072;28;20159;-93
2021/10/25 06:55:43;;;;;;;13.07;8.53;;;3.80;91.10;;;;;;5050893;28;20187;-92
2021/10/25 06:58:09;;;;;;;13.90;9.10;;;3.80;91.20;;;;;;5052910;28;20245;-93
2021/10/25 07:00:35;;;;;;;11.60;8.50;;;3.80;91.10;;;;;;5055410;28;20214;-91
2021/10/25 07:03:01;;;;;;;11.30;7.87;;;3.80;91.00;;;;;;5054983;28;20206;-92
2021/10/25 07:05:31;;;;;;;11.93;7.30;;;3.80;91.10;;;;;;5049697;28;20223;-93
2021/10/25 07:07:57;;;;;;;10.67;8.00;;;3.80;91.10;;;;;;5050634;28;20205;-92
2021/10/25 07:10:23;;;;;;;13.60;7.93;;;3.80;91.10;;;;;;5050661;28;20184;-93
2021/10/25 07:12:49;;;;;;;13.23;7.97;;;3.80;91.10;;;;;;5057284;28;20176;-92
2021/10/25 07:15:17;;;;;;;10.47;7.10;;;3.80;91.10;;;;;;5057602;28;20173;-93
2021/10/25 07:26:29;;;;;;;13.83;8.17;;;3.80;91.00;;;;;;4995487;28;20175;-93
2021/10/25 08:04:26;;;;;;;14.03;9.73;;;5.20;91.50;;;;;;5072064;28;20231;-91
2021/10/25 08:12:10;;;;;;;18.47;11.43;;;5.50;90.90;;;;;;5062679;28;20157;-92
2021/10/25 08:14:40;;;;;;;13.53;10.80;;;5.60;90.70;;;;;;5051324;28;20170;-92
2021/10/25 08:17:08;;;;;;;14.13;11.23;;;5.70;90.90;;;;;;5054419;28;20177;-93
2021/10/25 08:19:34;;;;;;;16.53;10.97;;;5.80;90.90;;;;;;5055973;28;20176;-93
2021/10/25 08:22:06;;;;;;;16.07;11.77;;;5.80;90.90;;;;;;5050139;28;20187;-92
2021/10/25 08:24:44;;;;;;;18.13;11.43;;;5.90;90.90;;;;;;5051019;28;20187;-92
2021/10/25 08:27:10;;;;;;;20.37;12.10;;;6.00;90.80;;;;;;5050323;28;20186;-91
2021/10/25 08:29:39;;;;;;;16.27;11.60;;;6.10;90.60;;;;;;5042645;28;20174;-92
2021/10/25 08:32:13;;;;;;;16.63;11.63;;;6.20;90.40;;;;;;5040634;28;20189;-93
2021/10/25 08:39:58;;;;;;;15.27;11.57;;;6.50;90.10;;;;;;5059821;28;20162;-93
2021/10/25 08:42:27;;;;;;;15.27;10.83;;;6.60;89.80;;;;;;5044095;28;20178;-92
2021/10/25 08:44:58;;;;;;;15.03;11.27;;;6.70;89.80;;;;;;5045075;28;20233;-92
2021/10/25 08:47:28;;;;;;;14.90;10.73;;;6.70;89.40;;;;;;5045197;28;20625;-93
2021/10/25 08:49:55;;;;;;;16.23;10.80;;;6.80;89.70;;;;;;5045591;28;20172;-93
2021/10/25 08:52:23;;;;;;;16.17;10.90;;;6.80;89.30;;;;;;5047356;28;20176;-93
2021/10/25 08:54:50;;;;;;;18.13;11.53;;;6.80;89.30;;;;;;5043926;28;20178;-92
2021/10/25 08:57:19;;;;;;;18.13;11.80;;;6.80;89.40;;;;;;5042500;28;20175;-93
2021/10/25 08:59:55;;;;;;;14.20;10.77;;;6.90;89.30;;;;;;5044782;28;20179;-92
2021/10/25 09:02:21;;;;;;;14.47;11.13;;;7.00;89.40;;;;;;5046466;28;20175;-94
2021/10/25 09:05:18;;;;;;;15.60;12.03;;;7.10;89.50;;;;;;5044661;28;20183;-92
2021/10/25 09:07:54;;;;;;;19.27;11.53;;;7.30;89.40;;;;;;5033475;28;20220;-93
2021/10/25 09:10:44;;;;;;;16.53;11.73;;;7.50;89.20;;;;;;5056557;28;20176;-93
2021/10/25 09:13:16;;;;;;;18.63;11.93;;;7.80;88.20;;;;;;5045063;28;20229;-91
2021/10/25 09:15:59;;;;;;;21.87;12.87;;;8.10;88.10;;;;;;5046073;28;20168;-93
2021/10/25 09:18:30;;;;;;;19.30;14.17;;;8.30;87.50;;;;;;5048944;28;20184;-92
2021/10/25 09:20:59;;;;;;;22.23;13.00;;;8.50;87.20;;;;;;5062443;28;20152;-92
2021/10/25 09:23:32;;;;;;;18.20;12.57;;;8.70;86.70;;;;;;5064166;28;20156;-91
2021/10/25 09:26:07;;;;;;;15.07;11.20;;;8.80;85.60;;;;;;5064114;28;20170;-92
2021/10/25 09:28:40;;;;;;;13.30;9.80;;;8.80;85.30;;;;;;5064038;28;20194;-91
2021/10/25 09:31:13;;;;;;;14.67;10.77;;;8.80;83.80;;;;;;5064028;28;20148;-91
2021/10/25 09:33:40;;;;;;;12.63;9.17;;;8.90;84.80;;;;;;5064020;28;20192;-93
2021/10/25 09:36:11;;;;;;;15.97;10.40;;;8.80;84.10;;;;;;5063857;28;20172;-91
2021/10/25 09:49:56;;;;;;;16.57;9.17;;;8.90;85.00;;;;;;5080727;28;20171;-89
2021/10/25 09:52:35;;;;;;;19.90;10.17;;;9.30;84.50;;;;;;5063552;28;20165;-90
2021/10/25 09:55:13;;;;;;;16.07;10.43;;;9.40;84.10;;;;;;5063506;28;20148;-92
2021/10/25 10:00:09;;;;;;;14.63;10.77;;;9.10;83.80;;;;;;5079333;28;20187;-93
2021/10/25 10:02:37;;;;;;;14.40;10.83;;;9.20;84.40;;;;;;5056636;28;20243;-92
2021/10/25 10:05:05;;;;;;;12.50;9.90;;;9.10;84.70;;;;;;5056037;28;20160;-92
2021/10/25 10:07:35;;;;;;;12.13;10.60;;;9.30;84.50;;;;;;5053437;28;20207;-92
2021/10/25 10:10:02;;;;;;;12.53;9.30;;;9.50;83.70;;;;;;5054061;28;20172;-93
2021/10/25 10:12:28;;;;;;;11.97;9.97;;;9.50;82.30;;;;;;5057727;28;20163;-92
2021/10/25 10:14:57;;;;;;;18.37;10.80;;;9.60;83.50;;;;;;5053770;28;20183;-93
2021/10/25 10:17:29;;;;;;;14.73;9.50;;;9.60;83.00;;;;;;5053589;28;20195;-92
2021/10/25 10:19:59;;;;;;;14.57;9.80;;;9.70;82.70;;;;;;5049698;28;20176;-91
2021/10/25 10:22:27;;;;;;;13.93;9.33;;;9.70;82.10;;;;;;5054019;28;20184;-92
2021/10/25 10:24:55;;;;;;;13.80;9.90;;;9.90;83.00;;;;;;5051914;28;20190;-92
2021/10/25 10:27:23;;;;;;;11.97;8.23;;;9.90;82.10;;;;;;5047609;28;21868;-92
2021/10/25 10:30:00;;;;;;;14.90;9.10;;;9.90;81.50;;;;;;5048264;28;20183;-93
2021/10/25 10:32:32;;;;;;;11.30;8.70;;;9.90;82.80;;;;;;5058210;28;20174;-93
2021/10/25 10:35:05;;;;;;;21.10;10.20;;;10.00;82.70;;;;;;5055780;28;20232;-93
2021/10/25 10:37:32;;;;;;;16.73;9.43;;;10.10;82.80;;;;;;5057041;28;20196;-92
2021/10/25 10:40:06;;;;;;;15.73;9.77;;;10.00;82.10;;;;;;5055969;28;20177;-94
2021/10/25 10:42:33;;;;;;;8.77;7.40;;;10.00;82.70;;;;;;5053767;28;20167;-95
2021/10/25 10:45:06;;;;;;;12.47;8.73;;;10.00;82.20;;;;;;5052956;28;20176;-92
2021/10/25 10:47:49;;;;;;;12.43;8.70;;;10.00;82.30;;;;;;5050871;28;20779;-93
2021/10/25 10:50:46;;;;;;;13.57;8.63;;;10.10;82.20;;;;;;5047597;28;20649;-93
2021/10/25 10:53:26;;;;;;;14.97;8.83;;;10.20;81.50;;;;;;5043510;28;20187;-93
2021/10/25 10:55:54;;;;;;;15.20;10.33;;;10.20;82.00;;;;;;5043319;28;20170;-92
2021/10/25 10:58:27;;;;;;;12.07;8.30;;;10.20;81.90;;;;;;5041611;28;20222;-92
2021/10/25 11:01:03;;;;;;;12.90;8.33;;;10.20;81.20;;;;;;5043464;28;20168;-93
2021/10/25 11:03:29;;;;;;;14.73;8.07;;;10.30;81.00;;;;;;5041824;28;20176;-93
2021/10/25 11:06:01;;;;;;;14.03;8.67;;;10.30;81.20;;;;;;5042300;28;20263;-92
2021/10/25 11:08:32;;;;;;;10.13;7.40;;;10.40;81.90;;;;;;5038797;28;20208;-93
2021/10/25 11:11:08;;;;;;;12.50;7.60;;;10.30;80.80;;;;;;5039155;28;20636;-92
2021/10/25 11:13:59;;;;;;;10.33;7.33;;;10.30;81.00;;;;;;5041547;28;20167;-93
2021/10/25 11:19:08;;;;;;;14.77;8.40;;;10.40;82.70;;;;;;5059556;28;20188;-93
2021/10/25 11:21:37;;;;;;;15.53;8.73;;;10.50;82.60;;;;;;5040525;28;20202;-92
2021/10/25 11:24:08;;;;;;;16.30;7.90;;;10.50;82.20;;;;;;5041528;28;20247;-93
2021/10/25 11:26:43;;;;;;;12.30;8.07;;;10.50;82.00;;;;;;5041640;28;20274;-92
2021/10/25 11:29:13;;;;;;;9.27;6.47;;;10.50;82.00;;;;;;5042873;28;20191;-94
2021/10/25 11:31:53;;;;;;;12.10;7.73;;;10.50;82.00;;;;;;5041863;28;20164;-92
2021/10/25 11:34:22;;;;;;;8.17;7.33;;;10.50;82.30;;;;;;5041834;28;20163;-92
2021/10/25 11:36:53;;;;;;;14.80;8.13;;;10.60;82.90;;;;;;5040745;28;20200;-92
2021/10/25 11:39:25;;;;;;;13.30;8.90;;;10.50;82.70;;;;;;5041391;28;20204;-93
2021/10/25 11:41:51;;;;;;;12.90;7.90;;;10.50;83.30;;;;;;5039562;28;20164;-92
2021/10/25 11:44:17;;;;;;;11.17;7.17;;;10.40;83.10;;;;;;5038996;28;20176;-92
2021/10/25 11:46:44;;;;;;;12.70;6.07;;;10.40;82.70;;;;;;5039708;28;20215;-92
2021/10/25 11:49:10;;;;;;;14.20;8.43;;;10.30;83.40;;;;;;5042183;28;20196;-93
2021/10/25 11:51:50;;;;;;;13.90;8.30;;;10.30;83.40;;;;;;5042482;28;20179;-92
2021/10/25 11:54:16;;;;;;;14.57;9.20;;;10.30;83.90;;;;;;5041666;28;20167;-93
2021/10/25 11:56:50;;;;;;;13.20;8.47;;;10.30;84.10;;;;;;5044178;28;20176;-93
2021/10/25 11:59:17;;;;;;;12.40;8.00;;;10.40;84.10;;;;;;5043672;28;20202;-92
2021/10/25 12:01:44;;;;;;;10.50;7.73;;;10.30;83.60;;;;;;5042363;28;20187;-93
2021/10/25 12:04:10;;;;;;;12.77;8.73;;;10.40;84.00;;;;;;5042365;28;20208;-93
2021/10/25 12:06:36;;;;;;;13.53;8.83;;;10.40;84.30;;;;;;5041235;28;20200;-93
2021/10/25 12:09:08;;;;;;;15.93;9.80;;;10.40;84.30;;;;;;5041931;28;20188;-93
2021/10/25 12:14:37;;;;;;;15.70;7.90;;;10.50;84.50;;;;;;5042178;28;20247;-93
2021/10/25 12:17:04;;;;;;;13.27;8.13;;;10.60;85.20;;;;;;5040826;28;20191;-93
2021/10/25 12:19:30;;;;;;;13.03;8.33;;;10.70;85.20;;;;;;5041114;28;20199;-92
2021/10/25 12:22:17;;;;;;;12.43;8.77;;;10.60;84.40;;;;;;5045588;28;20183;-93
2021/10/25 12:24:49;;;;;;;10.73;7.87;;;10.70;84.90;;;;;;5045169;28;20671;-93
2021/10/25 12:27:22;;;;;;;12.20;8.57;;;10.70;84.80;;;;;;5044849;28;20199;-93
2021/10/25 12:30:14;;;;;;;16.50;8.63;;;10.80;84.50;;;;;;5042923;28;20165;-93
2021/10/25 12:32:50;;;;;;;11.77;8.30;;;10.80;84.80;;;;;;5044592;28;20648;-92
2021/10/25 12:35:16;;;;;;;12.27;8.17;;;10.80;84.60;;;;;;5046097;28;20627;-92
2021/10/25 12:37:42;;;;;;;12.63;8.90;;;10.90;85.10;;;;;;5044785;28;20270;-93
2021/10/25 12:40:19;;;;;;;13.40;7.73;;;10.90;84.60;;;;;;5043792;28;20187;-92
2021/10/25 12:42:46;;;;;;;13.83;7.90;;;10.90;84.80;;;;;;5044777;28;20175;-93
2021/10/25 12:45:21;;;;;;;9.60;7.27;;;11.00;84.90;;;;;;5043856;28;20644;-93
2021/10/25 12:47:51;;;;;;;12.93;7.73;;;11.00;84.90;;;;;;5043185;28;20297;-94
2021/10/25 12:50:17;;;;;;;10.07;7.77;;;11.10;85.20;;;;;;5043833;28;20160;-92
2021/10/25 12:52:53;;;;;;;9.17;8.03;;;11.10;85.10;;;;;;5063013;28;20183;-92
2021/10/25 12:55:19;;;;;;;10.23;6.87;;;11.10;84.90;;;;;;5041093;28;20167;-93
2021/10/25 12:57:45;;;;;;;12.53;8.87;;;11.20;84.80;;;;;;5040498;28;20211;-92
2021/10/25 13:00:13;;;;;;;11.57;7.60;;;11.20;85.40;;;;;;5041030;28;20202;-92
2021/10/25 13:02:42;;;;;;;12.50;7.63;;;11.20;85.00;;;;;;5041204;28;20203;-93
2021/10/25 13:05:13;;;;;;;13.43;7.83;;;11.20;85.00;;;;;;5041907;28;20176;-92
2021/10/25 13:07:54;;;;;;;11.60;8.10;;;11.30;84.80;;;;;;5041939;28;20204;-93
2021/10/25 13:10:28;;;;;;;11.03;5.73;;;11.30;84.90;;;;;;5041150;28;20171;-92
2021/10/25 13:12:57;;;;;;;12.90;7.90;;;11.30;84.70;;;;;;5041392;28;20170;-92
2021/10/25 13:15:24;;;;;;;13.80;7.77;;;11.30;85.60;;;;;;5042783;28;20576;-93
2021/10/25 13:17:53;;;;;;;13.43;7.53;;;11.30;85.20;;;;;;5041363;28;20249;-92
2021/10/25 13:20:21;;;;;;;11.07;7.27;;;11.30;84.60;;;;;;5040840;28;20180;-93
2021/10/25 13:22:49;;;;;;;10.77;7.37;;;11.20;84.70;;;;;;5041649;28;20180;-93
2021/10/25 13:25:16;;;;;;;10.30;5.70;;;11.30;84.80;;;;;;5040685;28;20172;-93
2021/10/25 13:27:42;;;;;;;7.87;5.80;;;11.20;84.50;;;;;;5040438;28;20258;-94
2021/10/25 13:30:10;;;;;;;8.57;6.57;;;11.20;84.40;;;;;;5041865;28;20168;-93
2021/10/25 13:32:36;;;;;;;13.47;7.03;;;11.10;84.40;;;;;;5041512;28;20262;-93
2021/10/25 13:35:03;;;;;;;11.03;7.17;;;11.10;84.50;;;;;;5041412;28;20211;-94
2021/10/25 13:37:28;;;;;;;13.27;6.97;;;11.10;84.80;;;;;;5041346;28;20203;-93
2021/10/25 13:39:54;;;;;;;13.60;7.57;;;11.10;84.90;;;;;;5041888;28;20175;-93
2021/10/25 13:42:20;;;;;;;9.43;7.00;;;11.10;85.30;;;;;;5041672;28;20180;-93
2021/10/25 13:44:46;;;;;;;13.07;7.03;;;11.10;84.70;;;;;;5042267;28;20206;-93
2021/10/25 13:47:11;;;;;;;10.60;7.47;;;11.10;85.50;;;;;;5039806;28;20200;-93
2021/10/25 13:49:37;;;;;;;10.80;7.00;;;11.10;85.00;;;;;;5040653;28;20172;-92
2021/10/25 13:52:04;;;;;;;13.57;7.23;;;11.10;85.20;;;;;;5041046;28;20237;-92
2021/10/25 13:54:31;;;;;;;11.70;7.83;;;11.10;85.20;;;;;;5039909;28;20168;-92
2021/10/25 13:56:58;;;;;;;12.47;7.93;;;11.10;85.60;;;;;;5041025;28;20218;-93
2021/10/25 13:59:24;;;;;;;10.50;7.57;;;11.10;86.00;;;;;;5040080;28;20227;-93
2021/10/25 14:01:50;;;;;;;12.00;8.27;;;11.00;86.10;;;;;;5040109;28;20176;-92
2021/10/25 14:04:19;;;;;;;11.83;7.50;;;11.00;86.30;;;;;;5039611;28;20172;-93
2021/10/25 14:06:45;;;;;;;13.23;8.17;;;11.00;85.80;;;;;;5040802;28;20683;-93
2021/10/25 14:09:11;;;;;;;10.47;8.00;;;11.00;86.30;;;;;;5043032;28;20195;-93
2021/10/25 14:11:42;;;;;;;11.50;7.63;;;10.90;86.80;;;;;;5048138;28;20230;-93
2021/10/25 14:16:36;;;;;;;12.80;8.97;;;10.90;87.40;;;;;;5061418;28;20183;-94
2021/10/25 14:19:06;;;;;;;13.80;8.17;;;10.80;87.60;;;;;;5040308;28;20204;-93
2021/10/25 14:21:36;;;;;;;10.27;8.47;;;10.80;87.80;;;;;;5040104;28;20252;-92
2021/10/25 14:24:04;;;;;;;11.23;9.10;;;10.80;87.60;;;;;;5039893;28;20337;-92
2021/10/25 14:26:31;;;;;;;12.97;9.13;;;10.80;88.20;;;;;;5040022;28;20241;-93
2021/10/25 14:28:56;;;;;;;15.37;8.23;;;10.90;88.10;;;;;;5039913;28;20200;-92
2021/10/25 14:31:22;;;;;;;12.13;7.90;;;10.90;88.30;;;;;;5039483;28;20176;-93
2021/10/25 14:33:50;;;;;;;10.77;7.50;;;10.90;88.30;;;;;;5040307;28;20216;-92
2021/10/25 14:36:16;;;;;;;16.13;9.30;;;10.90;88.50;;;;;;5040495;28;20179;-92
2021/10/25 14:43:46;;;;;;;13.23;7.90;;;11.00;88.50;;;;;;5056119;28;20161;-92
2021/10/25 14:46:19;;;;;;;14.73;7.80;;;11.00;88.40;;;;;;5036665;28;20230;-92
2021/10/25 14:48:52;;;;;;;20.37;8.60;;;11.00;88.40;;;;;;5036780;28;20195;-93